createdAt,value
2018-01-03T00:00:36.287Z,990.46
2018-01-03T00:01:36.269Z,990.53
2018-01-03T00:02:36.250Z,990.40
2018-01-03T00:03:36.283Z,990.36
2018-01-03T00:04:36.209Z,990.33
2018-01-03T00:05:36.186Z,990.28
2018-01-03T00:06:36.169Z,990.24
2018-01-03T00:07:36.139Z,990.17
2018-01-03T00:08:36.138Z,990.18
2018-01-03T00:09:36.105Z,990.24
2018-01-03T00:10:36.089Z,990.10
2018-01-03T00:11:36.065Z,990.08
2018-01-03T00:12:36.044Z,990.04
2018-01-03T00:13:36.025Z,990.02
2018-01-03T00:14:36.004Z,989.92
2018-01-03T00:15:35.979Z,989.87
2018-01-03T00:16:35.969Z,989.89
2018-01-03T00:17:35.948Z,989.78
2018-01-03T00:18:35.931Z,989.79
2018-01-03T00:19:35.909Z,989.77
2018-01-03T00:20:35.887Z,989.72
2018-01-03T00:21:35.869Z,989.65
2018-01-03T00:22:35.859Z,989.68
2018-01-03T00:23:35.825Z,989.61
2018-01-03T00:24:35.817Z,989.58
2018-01-03T00:25:35.794Z,989.57
2018-01-03T00:26:35.773Z,989.46
2018-01-03T00:27:35.748Z,989.41
2018-01-03T00:28:35.730Z,989.35
2018-01-03T00:29:35.721Z,989.35
2018-01-03T00:30:35.699Z,989.36
2018-01-03T00:31:35.669Z,989.22
2018-01-03T00:32:35.650Z,989.19
2018-01-03T00:33:35.631Z,989.19
2018-01-03T00:34:35.601Z,989.13
2018-01-03T00:35:35.601Z,989.01
2018-01-03T00:36:35.576Z,989.05
2018-01-03T00:37:35.605Z,988.97
2018-01-03T00:38:35.549Z,988.97
2018-01-03T00:39:35.517Z,988.98
2018-01-03T00:40:35.496Z,989.04
2018-01-03T00:41:35.473Z,988.99
2018-01-03T00:42:35.456Z,988.95
2018-01-03T00:43:35.432Z,988.85
2018-01-03T00:44:35.414Z,988.91
2018-01-03T00:45:35.394Z,988.92
2018-01-03T00:46:35.366Z,988.95
2018-01-03T00:47:35.353Z,988.98
2018-01-03T00:48:35.335Z,988.88
2018-01-03T00:49:35.315Z,988.90
2018-01-03T00:50:35.293Z,988.78
2018-01-03T00:51:35.281Z,988.73
2018-01-03T00:52:35.255Z,988.67
2018-01-03T00:53:35.236Z,988.71
2018-01-03T00:54:35.216Z,988.59
2018-01-03T00:55:35.198Z,988.55
2018-01-03T00:56:35.184Z,988.43
2018-01-03T00:57:35.159Z,988.35
2018-01-03T00:58:35.139Z,988.29
2018-01-03T00:59:35.135Z,988.27
2018-01-03T01:00:35.099Z,988.28
2018-01-03T01:01:35.069Z,988.21
2018-01-03T01:02:35.060Z,988.17
2018-01-03T01:03:35.042Z,988.06
2018-01-03T01:04:35.018Z,987.98
2018-01-03T01:05:34.992Z,987.92
2018-01-03T01:06:34.976Z,987.85
2018-01-03T01:07:34.961Z,987.82
2018-01-03T01:08:34.941Z,987.75
2018-01-03T01:09:34.924Z,987.68
2018-01-03T01:10:34.900Z,987.61
2018-01-03T01:11:34.884Z,987.57
2018-01-03T01:12:34.872Z,987.52
2018-01-03T01:13:34.836Z,987.42
2018-01-03T01:14:34.827Z,987.40
2018-01-03T01:15:34.807Z,987.31
2018-01-03T01:16:34.788Z,987.23
2018-01-03T01:17:34.759Z,987.11
2018-01-03T01:18:34.753Z,987.04
2018-01-03T01:19:34.734Z,986.98
2018-01-03T01:20:34.703Z,986.86
2018-01-03T01:21:34.677Z,986.86
2018-01-03T01:22:34.676Z,986.82
2018-01-03T01:23:34.644Z,986.77
2018-01-03T01:24:34.631Z,986.64
2018-01-03T01:25:34.606Z,986.57
2018-01-03T01:26:34.585Z,986.42
2018-01-03T01:27:34.561Z,986.41
2018-01-03T01:28:34.546Z,986.31
2018-01-03T01:29:34.520Z,986.14
2018-01-03T01:30:34.507Z,986.11
2018-01-03T01:31:34.487Z,985.98
2018-01-03T01:32:34.469Z,985.86
2018-01-03T01:33:34.450Z,985.90
2018-01-03T01:34:34.432Z,985.95
2018-01-03T01:35:34.424Z,985.88
2018-01-03T01:36:34.382Z,985.88
2018-01-03T01:37:34.368Z,985.74
2018-01-03T01:38:34.344Z,985.70
2018-01-03T01:39:34.333Z,985.66
2018-01-03T01:40:34.308Z,985.62
2018-01-03T01:41:34.291Z,985.64
2018-01-03T01:42:34.268Z,985.61
2018-01-03T01:43:34.261Z,985.53
2018-01-03T01:44:34.228Z,985.41
2018-01-03T01:45:34.221Z,985.29
2018-01-03T01:46:34.192Z,985.28
2018-01-03T01:47:34.175Z,985.17
2018-01-03T01:48:34.153Z,985.16
2018-01-03T01:49:34.142Z,985.04
2018-01-03T01:50:34.127Z,984.91
2018-01-03T01:51:34.104Z,984.94
2018-01-03T01:52:34.076Z,984.86
2018-01-03T01:53:34.074Z,984.75
2018-01-03T01:54:34.038Z,984.74
2018-01-03T01:55:34.020Z,984.72
2018-01-03T01:56:33.999Z,984.66
2018-01-03T01:57:33.979Z,984.61
2018-01-03T01:58:33.958Z,984.60
2018-01-03T01:59:33.941Z,984.44
2018-01-03T02:00:33.923Z,984.34
2018-01-03T02:01:33.897Z,984.26
2018-01-03T02:02:33.886Z,984.32
2018-01-03T02:03:33.864Z,984.32
2018-01-03T02:04:33.844Z,984.25
2018-01-03T02:05:33.822Z,984.27
2018-01-03T02:06:33.804Z,984.30
2018-01-03T02:07:33.786Z,984.16
2018-01-03T02:08:33.773Z,984.18
2018-01-03T02:09:33.744Z,984.11
2018-01-03T02:10:33.729Z,983.85
2018-01-03T02:11:33.703Z,983.74
2018-01-03T02:12:33.688Z,983.64
2018-01-03T02:13:33.667Z,983.56
2018-01-03T02:14:33.652Z,983.48
2018-01-03T02:15:33.624Z,983.38
2018-01-03T02:16:33.621Z,983.34
2018-01-03T02:17:33.590Z,983.31
2018-01-03T02:18:33.575Z,983.26
2018-01-03T02:19:33.552Z,983.33
2018-01-03T02:20:33.541Z,983.26
2018-01-03T02:21:33.513Z,983.13
2018-01-03T02:22:33.499Z,983.13
2018-01-03T02:23:33.476Z,983.04
2018-01-03T02:24:33.461Z,982.89
2018-01-03T02:25:33.437Z,982.73
2018-01-03T02:26:33.420Z,982.65
2018-01-03T02:27:33.401Z,982.56
2018-01-03T02:28:33.379Z,982.42
2018-01-03T02:29:33.359Z,982.36
2018-01-03T02:30:33.351Z,982.29
2018-01-03T02:31:33.324Z,982.12
2018-01-03T02:32:33.316Z,982.02
2018-01-03T02:33:33.281Z,982.01
2018-01-03T02:34:33.268Z,981.92
2018-01-03T02:35:33.249Z,981.97
2018-01-03T02:36:33.236Z,981.74
2018-01-03T02:37:33.206Z,981.61
2018-01-03T02:38:33.195Z,981.63
2018-01-03T02:39:33.165Z,981.53
2018-01-03T02:40:33.150Z,981.49
2018-01-03T02:41:33.127Z,981.39
2018-01-03T02:42:33.116Z,981.37
2018-01-03T02:43:33.090Z,981.28
2018-01-03T02:44:33.069Z,981.22
2018-01-03T02:45:33.051Z,981.22
2018-01-03T02:46:33.032Z,981.18
2018-01-03T02:47:33.017Z,981.13
2018-01-03T02:48:32.993Z,981.10
2018-01-03T02:49:32.974Z,981.14
2018-01-03T02:50:32.948Z,981.02
2018-01-03T02:51:32.936Z,981.08
2018-01-03T02:52:32.916Z,980.95
2018-01-03T02:53:32.896Z,980.76
2018-01-03T02:54:32.886Z,980.82
2018-01-03T02:55:32.860Z,980.75
2018-01-03T02:56:32.838Z,980.76
2018-01-03T02:57:32.820Z,980.56
2018-01-03T02:58:32.793Z,980.83
2018-01-03T02:59:32.783Z,980.66
2018-01-03T03:00:32.762Z,980.58
2018-01-03T03:01:32.742Z,980.62
2018-01-03T03:02:32.717Z,980.46
2018-01-03T03:03:32.706Z,980.32
2018-01-03T03:04:32.683Z,980.26
2018-01-03T03:05:32.667Z,979.98
2018-01-03T03:06:32.641Z,979.88
2018-01-03T03:07:32.632Z,979.93
2018-01-03T03:08:32.613Z,979.86
2018-01-03T03:09:32.579Z,979.75
2018-01-03T03:10:32.568Z,979.71
2018-01-03T03:11:32.548Z,979.58
2018-01-03T03:12:32.529Z,979.58
2018-01-03T03:13:32.527Z,979.43
2018-01-03T03:14:32.490Z,979.35
2018-01-03T03:15:32.482Z,979.16
2018-01-03T03:16:32.451Z,979.11
2018-01-03T03:17:32.432Z,978.99
2018-01-03T03:18:32.413Z,979.03
2018-01-03T03:19:32.392Z,978.95
2018-01-03T03:20:32.374Z,978.85
2018-01-03T03:21:32.355Z,978.85
2018-01-03T03:22:32.337Z,978.80
2018-01-03T03:23:32.316Z,978.80
2018-01-03T03:24:32.300Z,978.67
2018-01-03T03:25:32.279Z,978.77
2018-01-03T03:26:32.258Z,978.73
2018-01-03T03:27:32.240Z,978.64
2018-01-03T03:28:32.220Z,978.50
2018-01-03T03:29:32.200Z,978.55
2018-01-03T03:30:32.181Z,978.57
2018-01-03T03:31:32.162Z,978.49
2018-01-03T03:32:32.142Z,978.44
2018-01-03T03:33:32.123Z,978.34
2018-01-03T03:34:32.103Z,978.32
2018-01-03T03:35:32.088Z,978.31
2018-01-03T03:36:32.065Z,978.14
2018-01-03T03:37:32.045Z,978.16
2018-01-03T03:38:32.023Z,978.14
2018-01-03T03:39:32.006Z,977.95
2018-01-03T03:40:31.991Z,977.87
2018-01-03T03:41:31.968Z,977.83
2018-01-03T03:42:31.949Z,977.86
2018-01-03T03:43:31.953Z,977.77
2018-01-03T03:44:31.910Z,977.75
2018-01-03T03:45:31.891Z,977.61
2018-01-03T03:46:31.872Z,977.62
2018-01-03T03:47:31.853Z,977.58
2018-01-03T03:48:31.837Z,977.50
2018-01-03T03:49:31.810Z,977.48
2018-01-03T03:50:31.805Z,977.55
2018-01-03T03:51:31.778Z,977.60
2018-01-03T03:52:31.776Z,977.33
2018-01-03T03:53:31.734Z,977.36
2018-01-03T03:54:31.723Z,977.38
2018-01-03T03:55:31.715Z,977.17
2018-01-03T03:56:31.679Z,977.25
2018-01-03T03:57:31.658Z,977.10
2018-01-03T03:58:31.641Z,977.11
2018-01-03T03:59:31.625Z,977.06
2018-01-03T04:00:31.599Z,977.07
2018-01-03T04:01:31.582Z,977.00
2018-01-03T04:02:31.566Z,976.99
2018-01-03T04:03:31.549Z,977.04
2018-01-03T04:04:31.522Z,977.05
2018-01-03T04:05:31.507Z,976.84
2018-01-03T04:06:31.506Z,976.95
2018-01-03T04:07:31.491Z,977.04
2018-01-03T04:08:31.444Z,976.92
2018-01-03T04:09:31.427Z,976.89
2018-01-03T04:10:31.425Z,976.80
2018-01-03T04:11:31.416Z,976.84
2018-01-03T04:12:31.375Z,976.91
2018-01-03T04:13:31.356Z,976.92
2018-01-03T04:14:31.337Z,976.92
2018-01-03T04:15:31.323Z,976.79
2018-01-03T04:16:31.301Z,976.95
2018-01-03T04:17:31.277Z,977.05
2018-01-03T04:18:31.262Z,977.14
2018-01-03T04:19:31.243Z,977.05
2018-01-03T04:20:31.225Z,977.02
2018-01-03T04:21:31.211Z,977.12
2018-01-03T04:22:31.188Z,977.09
2018-01-03T04:23:31.167Z,977.24
2018-01-03T04:24:31.151Z,977.34
2018-01-03T04:25:31.132Z,977.38
2018-01-03T04:26:31.112Z,977.28
2018-01-03T04:27:31.093Z,978.23
2018-01-03T04:28:31.073Z,978.45
2018-01-03T04:29:31.054Z,978.47
2018-01-03T04:30:31.037Z,978.23
2018-01-03T04:31:31.017Z,978.15
2018-01-03T04:32:30.998Z,977.91
2018-01-03T04:33:30.975Z,977.83
2018-01-03T04:34:30.962Z,977.96
2018-01-03T04:35:30.944Z,977.73
2018-01-03T04:36:30.921Z,977.57
2018-01-03T04:37:30.908Z,977.56
2018-01-03T04:38:30.887Z,977.51
2018-01-03T04:39:30.867Z,977.25
2018-01-03T04:40:30.850Z,977.15
2018-01-03T04:41:30.824Z,977.28
2018-01-03T04:42:30.811Z,977.13
2018-01-03T04:43:30.809Z,977.05
2018-01-03T04:44:30.774Z,977.19
2018-01-03T04:45:30.760Z,977.20
2018-01-03T04:46:30.733Z,977.18
2018-01-03T04:47:30.714Z,976.96
2018-01-03T04:48:30.696Z,977.15
2018-01-03T04:49:30.679Z,977.08
2018-01-03T04:50:30.655Z,977.09
2018-01-03T04:51:30.636Z,977.19
2018-01-03T04:52:30.624Z,977.08
2018-01-03T04:53:30.601Z,977.22
2018-01-03T04:54:30.593Z,977.31
2018-01-03T04:55:30.561Z,977.18
2018-01-03T04:56:30.546Z,977.23
2018-01-03T04:57:30.542Z,977.26
2018-01-03T04:58:30.511Z,977.30
2018-01-03T04:59:30.493Z,977.33
2018-01-03T05:00:30.479Z,977.25
2018-01-03T05:01:30.464Z,977.39
2018-01-03T05:02:30.438Z,977.29
2018-01-03T05:03:30.427Z,977.18
2018-01-03T05:04:30.404Z,977.20
2018-01-03T05:05:30.399Z,977.28
2018-01-03T05:06:30.364Z,977.29
2018-01-03T05:07:30.359Z,977.28
2018-01-03T05:08:30.318Z,977.36
2018-01-03T05:09:30.328Z,977.32
2018-01-03T05:10:33.301Z,977.25
2018-01-03T05:11:30.267Z,977.29
2018-01-03T05:12:30.254Z,977.19
2018-01-03T05:13:30.252Z,977.19
2018-01-03T05:14:30.220Z,977.14
2018-01-03T05:15:30.260Z,977.13
2018-01-03T05:16:30.184Z,977.06
2018-01-03T05:17:30.221Z,977.20
2018-01-03T05:18:30.140Z,977.19
2018-01-03T05:19:30.119Z,977.07
2018-01-03T05:20:30.112Z,977.02
2018-01-03T05:21:30.090Z,976.88
2018-01-03T05:22:30.080Z,976.79
2018-01-03T05:23:30.048Z,976.73
2018-01-03T05:24:30.045Z,976.79
2018-01-03T05:25:30.028Z,976.93
2018-01-03T05:26:30.003Z,977.10
2018-01-03T05:27:29.992Z,977.10
2018-01-03T05:28:29.963Z,977.11
2018-01-03T05:29:29.954Z,977.14
2018-01-03T05:30:29.942Z,977.38
2018-01-03T05:31:29.914Z,977.42
2018-01-03T05:32:29.917Z,977.43
2018-01-03T05:33:29.877Z,977.28
2018-01-03T05:34:29.841Z,977.21
2018-01-03T05:35:29.861Z,977.20
2018-01-03T05:36:29.806Z,977.25
2018-01-03T05:37:29.832Z,977.32
2018-01-03T05:38:29.766Z,977.31
2018-01-03T05:39:29.786Z,977.33
2018-01-03T05:40:29.832Z,977.30
2018-01-03T05:41:29.723Z,977.40
2018-01-03T05:42:29.714Z,977.39
2018-01-03T05:43:29.693Z,977.39
2018-01-03T05:44:29.685Z,977.45
2018-01-03T05:45:29.665Z,977.44
2018-01-03T05:46:29.637Z,977.46
2018-01-03T05:47:29.606Z,977.51
2018-01-03T05:48:29.584Z,977.46
2018-01-03T05:49:29.586Z,977.53
2018-01-03T05:50:29.550Z,977.51
2018-01-03T05:51:29.554Z,977.56
2018-01-03T05:52:29.617Z,977.54
2018-01-03T05:53:29.496Z,977.65
2018-01-03T05:54:29.492Z,977.64
2018-01-03T05:55:29.477Z,977.70
2018-01-03T05:56:29.434Z,977.51
2018-01-03T05:57:29.430Z,977.57
2018-01-03T05:58:29.459Z,977.49
2018-01-03T05:59:29.421Z,977.53
2018-01-03T06:00:29.358Z,977.45
2018-01-03T06:01:29.351Z,977.43
2018-01-03T06:02:29.357Z,977.43
2018-01-03T06:03:29.310Z,977.26
2018-01-03T06:04:29.303Z,977.30
2018-01-03T06:05:29.279Z,977.32
2018-01-03T06:06:29.268Z,977.34
2018-01-03T06:07:29.283Z,977.35
2018-01-03T06:08:29.214Z,977.32
2018-01-03T06:09:29.208Z,977.37
2018-01-03T06:10:29.193Z,977.32
2018-01-03T06:11:29.176Z,977.39
2018-01-03T06:12:29.143Z,977.39
2018-01-03T06:13:29.143Z,977.41
2018-01-03T06:14:29.115Z,977.38
2018-01-03T06:15:29.101Z,977.23
2018-01-03T06:16:29.072Z,977.27
2018-01-03T06:17:29.046Z,977.37
2018-01-03T06:18:29.046Z,977.33
2018-01-03T06:19:29.018Z,977.38
2018-01-03T06:20:29.007Z,977.44
2018-01-03T06:21:28.973Z,977.40
2018-01-03T06:22:28.984Z,977.35
2018-01-03T06:23:28.965Z,977.38
2018-01-03T06:24:28.937Z,977.43
2018-01-03T06:25:28.925Z,977.38
2018-01-03T06:26:28.888Z,977.30
2018-01-03T06:27:28.913Z,977.34
2018-01-03T06:28:28.861Z,977.30
2018-01-03T06:29:28.842Z,977.31
2018-01-03T06:30:28.854Z,977.32
2018-01-03T06:31:28.821Z,977.51
2018-01-03T06:32:28.769Z,977.29
2018-01-03T06:33:28.762Z,977.32
2018-01-03T06:34:28.766Z,977.26
2018-01-03T06:35:28.720Z,977.28
2018-01-03T06:36:28.695Z,977.26
2018-01-03T06:37:28.697Z,977.24
2018-01-03T06:38:28.686Z,977.13
2018-01-03T06:39:28.642Z,977.17
2018-01-03T06:40:28.646Z,977.16
2018-01-03T06:41:28.598Z,977.11
2018-01-03T06:42:28.611Z,977.08
2018-01-03T06:43:28.572Z,977.02
2018-01-03T06:44:28.551Z,976.94
2018-01-03T06:45:28.538Z,977.00
2018-01-03T06:46:28.536Z,976.87
2018-01-03T06:47:28.539Z,976.79
2018-01-03T06:48:28.502Z,976.67
2018-01-03T06:49:28.453Z,976.71
2018-01-03T06:50:28.449Z,976.69
2018-01-03T06:51:28.449Z,976.69
2018-01-03T06:52:28.400Z,976.82
2018-01-03T06:53:28.414Z,976.77
2018-01-03T06:54:28.375Z,976.80
2018-01-03T06:55:28.388Z,976.71
2018-01-03T06:56:28.340Z,976.77
2018-01-03T06:57:28.317Z,976.79
2018-01-03T06:58:28.302Z,976.78
2018-01-03T06:59:28.287Z,976.71
2018-01-03T07:00:28.312Z,976.68
2018-01-03T07:01:28.239Z,976.75
2018-01-03T07:02:28.218Z,976.66
2018-01-03T07:03:28.212Z,976.66
2018-01-03T07:04:28.183Z,976.63
2018-01-03T07:05:28.177Z,976.57
2018-01-03T07:06:28.157Z,976.63
2018-01-03T07:07:28.127Z,976.45
2018-01-03T07:08:28.098Z,976.58
2018-01-03T07:09:28.094Z,976.48
2018-01-03T07:10:28.225Z,976.50
2018-01-03T07:11:28.046Z,976.54
2018-01-03T07:12:28.032Z,976.63
2018-01-03T07:13:28.019Z,976.57
2018-01-03T07:14:28.002Z,976.68
2018-01-03T07:15:27.971Z,976.66
2018-01-03T07:16:27.958Z,976.59
2018-01-03T07:17:27.947Z,976.67
2018-01-03T07:18:27.936Z,976.64
2018-01-03T07:19:27.898Z,976.59
2018-01-03T07:20:27.884Z,976.53
2018-01-03T07:21:27.872Z,976.47
2018-01-03T07:22:27.845Z,976.58
2018-01-03T07:23:27.830Z,976.49
2018-01-03T07:24:27.822Z,976.45
2018-01-03T07:25:27.795Z,976.39
2018-01-03T07:26:27.800Z,976.44
2018-01-03T07:27:27.744Z,976.50
2018-01-03T07:28:27.731Z,976.57
2018-01-03T07:29:27.727Z,976.53
2018-01-03T07:30:27.697Z,976.56
2018-01-03T07:31:27.669Z,976.46
2018-01-03T07:32:27.663Z,976.39
2018-01-03T07:33:27.659Z,976.47
2018-01-03T07:34:27.633Z,976.48
2018-01-03T07:35:27.592Z,976.49
2018-01-03T07:36:27.584Z,976.53
2018-01-03T07:37:27.558Z,976.41
2018-01-03T07:38:27.572Z,976.57
2018-01-03T07:39:27.518Z,976.54
2018-01-03T07:40:27.508Z,976.63
2018-01-03T07:41:27.500Z,976.43
2018-01-03T07:42:27.492Z,976.59
2018-01-03T07:43:27.469Z,976.63
2018-01-03T07:44:27.431Z,976.77
2018-01-03T07:45:27.433Z,976.99
2018-01-03T07:46:27.385Z,977.16
2018-01-03T07:47:27.364Z,977.20
2018-01-03T07:48:27.418Z,977.24
2018-01-03T07:49:27.345Z,977.20
2018-01-03T07:50:27.348Z,977.35
2018-01-03T07:51:27.304Z,977.33
2018-01-03T07:52:27.273Z,977.32
2018-01-03T07:53:27.252Z,977.49
2018-01-03T07:54:27.370Z,977.40
2018-01-03T07:55:27.234Z,977.35
2018-01-03T07:56:27.207Z,977.31
2018-01-03T07:57:27.194Z,977.43
2018-01-03T07:58:27.178Z,977.42
2018-01-03T07:59:27.176Z,977.16
2018-01-03T08:00:27.197Z,977.47
2018-01-03T08:01:27.116Z,977.41
2018-01-03T08:02:27.150Z,977.55
2018-01-03T08:03:27.062Z,977.51
2018-01-03T08:04:27.120Z,977.57
2018-01-03T08:05:27.020Z,977.56
2018-01-03T08:06:27.025Z,977.68
2018-01-03T08:07:26.988Z,977.64
2018-01-03T08:08:26.962Z,977.75
2018-01-03T08:09:26.974Z,977.64
2018-01-03T08:10:26.971Z,977.60
2018-01-03T08:11:27.034Z,977.78
2018-01-03T08:12:26.917Z,977.58
2018-01-03T08:13:26.930Z,977.59
2018-01-03T08:14:26.854Z,977.77
2018-01-03T08:15:26.839Z,977.76
2018-01-03T08:16:26.809Z,977.84
2018-01-03T08:17:26.807Z,977.98
2018-01-03T08:18:26.783Z,977.97
2018-01-03T08:19:26.763Z,978.02
2018-01-03T08:20:26.735Z,978.02
2018-01-03T08:21:26.736Z,978.02
2018-01-03T08:22:26.721Z,977.99
2018-01-03T08:23:26.693Z,978.08
2018-01-03T08:24:26.667Z,978.08
2018-01-03T08:25:26.648Z,978.19
2018-01-03T08:26:26.609Z,978.12
2018-01-03T08:27:26.611Z,978.09
2018-01-03T08:28:26.600Z,978.13
2018-01-03T08:29:26.578Z,978.13
2018-01-03T08:30:26.538Z,978.36
2018-01-03T08:31:26.519Z,978.30
2018-01-03T08:32:26.523Z,978.26
2018-01-03T08:33:26.494Z,978.30
2018-01-03T08:34:26.487Z,978.26
2018-01-03T08:35:26.444Z,978.34
2018-01-03T08:36:26.445Z,978.22
2018-01-03T08:37:26.429Z,978.32
2018-01-03T08:38:26.385Z,978.38
2018-01-03T08:39:26.356Z,978.31
2018-01-03T08:40:26.343Z,978.43
2018-01-03T08:41:26.352Z,978.44
2018-01-03T08:42:26.297Z,978.46
2018-01-03T08:43:26.283Z,978.48
2018-01-03T08:44:26.325Z,978.41
2018-01-03T08:45:26.272Z,978.48
2018-01-03T08:46:26.229Z,978.43
2018-01-03T08:47:26.249Z,978.44
2018-01-03T08:48:26.207Z,978.48
2018-01-03T08:49:26.194Z,978.45
2018-01-03T08:50:26.161Z,978.69
2018-01-03T08:51:26.149Z,978.62
2018-01-03T08:52:26.115Z,978.45
2018-01-03T08:53:26.086Z,978.44
2018-01-03T08:54:26.129Z,978.58
2018-01-03T08:55:26.053Z,978.63
2018-01-03T08:56:26.040Z,978.52
2018-01-03T08:57:26.036Z,978.45
2018-01-03T08:58:25.996Z,978.50
2018-01-03T08:59:25.983Z,978.66
2018-01-03T09:00:25.983Z,978.62
2018-01-03T09:01:25.939Z,978.65
2018-01-03T09:02:25.994Z,978.71
2018-01-03T09:03:25.924Z,978.62
2018-01-03T09:04:25.896Z,978.54
2018-01-03T09:05:25.984Z,978.75
2018-01-03T09:06:26.094Z,978.56
2018-01-03T09:07:25.839Z,978.63
2018-01-03T09:08:25.801Z,978.74
2018-01-03T09:09:25.818Z,978.65
2018-01-03T09:10:25.774Z,978.65
2018-01-03T09:11:25.737Z,978.51
2018-01-03T09:12:25.727Z,978.59
2018-01-03T09:13:25.698Z,978.70
2018-01-03T09:14:25.674Z,978.71
2018-01-03T09:15:25.669Z,978.65
2018-01-03T09:16:25.645Z,978.74
2018-01-03T09:17:25.663Z,978.72
2018-01-03T09:18:25.603Z,978.88
2018-01-03T09:19:25.605Z,978.72
2018-01-03T09:20:25.573Z,978.73
2018-01-03T09:21:25.556Z,978.79
2018-01-03T09:22:25.551Z,978.73
2018-01-03T09:23:25.511Z,978.80
2018-01-03T09:24:25.523Z,978.65
2018-01-03T09:25:25.512Z,978.80
2018-01-03T09:26:25.485Z,978.76
2018-01-03T09:27:25.440Z,978.82
2018-01-03T09:28:25.409Z,978.84
2018-01-03T09:29:25.420Z,978.85
2018-01-03T09:30:25.384Z,978.89
2018-01-03T09:31:25.386Z,978.86
2018-01-03T09:32:25.345Z,978.98
2018-01-03T09:33:25.316Z,978.92
2018-01-03T09:34:25.287Z,978.96
2018-01-03T09:35:27.324Z,978.99
2018-01-03T09:36:25.253Z,978.87
2018-01-03T09:37:25.245Z,978.89
2018-01-03T09:38:25.222Z,978.87
2018-01-03T09:39:25.201Z,978.85
2018-01-03T09:40:25.201Z,978.97
2018-01-03T09:41:25.164Z,979.00
2018-01-03T09:42:25.143Z,978.92
2018-01-03T09:43:25.148Z,979.01
2018-01-03T09:44:25.143Z,978.99
2018-01-03T09:45:25.087Z,978.93
2018-01-03T09:46:25.063Z,979.00
2018-01-03T09:47:25.052Z,979.08
2018-01-03T09:48:25.051Z,979.02
2018-01-03T09:49:25.033Z,979.05
2018-01-03T09:50:24.995Z,978.98
2018-01-03T09:51:24.983Z,979.02
2018-01-03T09:52:24.972Z,979.04
2018-01-03T09:53:24.978Z,979.07
2018-01-03T09:54:24.935Z,979.00
2018-01-03T09:55:24.905Z,979.05
2018-01-03T09:56:24.958Z,979.00
2018-01-03T09:57:24.851Z,979.03
2018-01-03T09:58:24.833Z,979.08
2018-01-03T09:59:24.813Z,979.02
2018-01-03T10:00:24.796Z,979.04
2018-01-03T10:01:24.775Z,979.04
2018-01-03T10:02:24.772Z,978.99
2018-01-03T10:03:24.751Z,979.15
2018-01-03T10:04:24.745Z,979.10
2018-01-03T10:05:24.775Z,979.10
2018-01-03T10:06:24.719Z,979.05
2018-01-03T10:07:24.678Z,978.98
2018-01-03T10:08:24.640Z,979.05
2018-01-03T10:09:24.654Z,978.91
2018-01-03T10:10:27.616Z,978.89
2018-01-03T10:11:24.600Z,978.88
2018-01-03T10:12:24.561Z,978.87
2018-01-03T10:13:24.548Z,979.05
2018-01-03T10:14:24.531Z,979.05
2018-01-03T10:15:24.527Z,978.90
2018-01-03T10:16:24.511Z,979.06
2018-01-03T10:17:24.479Z,978.97
2018-01-03T10:18:24.456Z,979.05
2018-01-03T10:19:24.456Z,979.15
2018-01-03T10:20:24.418Z,978.90
2018-01-03T10:21:24.508Z,979.00
2018-01-03T10:22:24.449Z,979.10
2018-01-03T10:23:24.369Z,979.00
2018-01-03T10:24:24.354Z,979.08
2018-01-03T10:25:24.340Z,979.14
2018-01-03T10:26:24.311Z,979.08
2018-01-03T10:27:24.297Z,979.06
2018-01-03T10:28:24.270Z,979.06
2018-01-03T10:29:24.247Z,979.07
2018-01-03T10:30:24.240Z,979.18
2018-01-03T10:31:24.216Z,979.28
2018-01-03T10:32:24.217Z,979.13
2018-01-03T10:33:24.177Z,979.11
2018-01-03T10:34:24.219Z,979.04
2018-01-03T10:35:24.174Z,979.08
2018-01-03T10:36:24.177Z,979.17
2018-01-03T10:37:24.104Z,979.17
2018-01-03T10:38:24.087Z,978.94
2018-01-03T10:39:24.063Z,979.20
2018-01-03T10:40:24.087Z,978.89
2018-01-03T10:41:24.032Z,979.18
2018-01-03T10:42:24.011Z,979.03
2018-01-03T10:43:24.006Z,979.15
2018-01-03T10:44:24.010Z,979.23
2018-01-03T10:45:23.963Z,979.09
2018-01-03T10:46:23.958Z,979.24
2018-01-03T10:47:23.924Z,979.03
2018-01-03T10:48:23.897Z,979.23
2018-01-03T10:49:23.894Z,979.09
2018-01-03T10:50:23.888Z,979.22
2018-01-03T10:51:23.855Z,979.24
2018-01-03T10:52:23.840Z,979.24
2018-01-03T10:53:23.819Z,979.27
2018-01-03T10:54:23.817Z,979.16
2018-01-03T10:55:23.763Z,979.13
2018-01-03T10:56:23.743Z,979.26
2018-01-03T10:57:23.766Z,979.22
2018-01-03T10:58:23.726Z,979.22
2018-01-03T10:59:23.694Z,979.25
2018-01-03T11:00:23.678Z,979.27
2018-01-03T11:01:23.646Z,979.22
2018-01-03T11:02:23.657Z,979.41
2018-01-03T11:03:23.653Z,979.32
2018-01-03T11:04:23.625Z,979.39
2018-01-03T11:05:23.606Z,979.41
2018-01-03T11:06:23.626Z,979.43
2018-01-03T11:07:23.601Z,979.35
2018-01-03T11:08:23.534Z,979.50
2018-01-03T11:09:23.536Z,979.55
2018-01-03T11:10:23.495Z,979.47
2018-01-03T11:11:23.495Z,979.76
2018-01-03T11:12:23.458Z,979.70
2018-01-03T11:13:23.431Z,979.62
2018-01-03T11:14:23.420Z,979.51
2018-01-03T11:15:23.430Z,979.66
2018-01-03T11:16:23.434Z,979.63
2018-01-03T11:17:23.383Z,979.68
2018-01-03T11:18:23.348Z,979.65
2018-01-03T11:19:23.346Z,979.64
2018-01-03T11:20:23.301Z,979.61
2018-01-03T11:21:23.292Z,979.64
2018-01-03T11:22:23.287Z,979.69
2018-01-03T11:23:23.268Z,979.66
2018-01-03T11:24:23.218Z,979.57
2018-01-03T11:25:23.233Z,979.48
2018-01-03T11:26:23.198Z,979.55
2018-01-03T11:27:23.181Z,979.62
2018-01-03T11:28:23.193Z,979.73
2018-01-03T11:29:23.122Z,979.55
2018-01-03T11:30:23.146Z,979.43
2018-01-03T11:31:23.175Z,979.56
2018-01-03T11:32:23.119Z,979.52
2018-01-03T11:33:23.065Z,979.43
2018-01-03T11:34:23.017Z,979.42
2018-01-03T11:35:23.031Z,979.39
2018-01-03T11:36:23.008Z,979.30
2018-01-03T11:37:22.988Z,979.54
2018-01-03T11:38:22.978Z,979.42
2018-01-03T11:39:22.999Z,979.57
2018-01-03T11:40:22.909Z,979.39
2018-01-03T11:41:22.889Z,979.48
2018-01-03T11:42:22.862Z,979.25
2018-01-03T11:43:22.869Z,979.32
2018-01-03T11:44:22.857Z,979.40
2018-01-03T11:45:22.803Z,979.48
2018-01-03T11:46:22.787Z,979.32
2018-01-03T11:47:22.768Z,979.51
2018-01-03T11:48:22.746Z,979.50
2018-01-03T11:49:22.752Z,979.49
2018-01-03T11:50:22.732Z,979.45
2018-01-03T11:51:22.730Z,979.42
2018-01-03T11:52:22.669Z,979.45
2018-01-03T11:53:22.672Z,979.35
2018-01-03T11:54:22.640Z,979.62
2018-01-03T11:55:22.629Z,979.48
2018-01-03T11:56:22.593Z,979.56
2018-01-03T11:57:22.577Z,979.57
2018-01-03T11:58:22.566Z,979.62
2018-01-03T11:59:22.524Z,979.54
2018-01-03T12:00:22.520Z,979.77
2018-01-03T12:01:22.511Z,979.67
2018-01-03T12:02:22.514Z,979.75
2018-01-03T12:03:22.445Z,979.71
2018-01-03T12:04:22.433Z,979.72
2018-01-03T12:05:22.409Z,979.69
2018-01-03T12:06:22.407Z,979.68
2018-01-03T12:07:22.371Z,979.67
2018-01-03T12:08:22.387Z,979.64
2018-01-03T12:09:22.324Z,979.86
2018-01-03T12:10:22.302Z,979.91
2018-01-03T12:11:22.298Z,979.81
2018-01-03T12:12:22.260Z,979.89
2018-01-03T12:13:22.235Z,980.01
2018-01-03T12:14:22.219Z,980.07
2018-01-03T12:15:22.189Z,979.93
2018-01-03T12:16:22.189Z,980.10
2018-01-03T12:17:22.191Z,980.04
2018-01-03T12:18:22.162Z,980.03
2018-01-03T12:19:22.137Z,980.10
2018-01-03T12:20:22.114Z,980.09
2018-01-03T12:21:22.078Z,980.14
2018-01-03T12:22:22.062Z,979.97
2018-01-03T12:23:22.037Z,979.95
2018-01-03T12:24:22.016Z,980.06
2018-01-03T12:25:22.210Z,980.09
2018-01-03T12:26:21.999Z,979.88
2018-01-03T12:27:21.980Z,980.01
2018-01-03T12:28:21.964Z,980.07